Time;durP1;ratioP1;P1;durP2;ratioP2;P2;SDS_P1;SDS_P2;PMS_P1;PMS_P2;Temp;Humidity;BMP_temperature;BMP_pressure;BME280_temperature;BME280_humidity;BME280_pressure;Samples;Min_cycle;Max_cycle;Signal;HPM_P1;HPM_P2
2023/12/22 00:01:55;;;;;;;8.18;1.05;;;7.10;99.90;;;;;;5034352;28;20264;-37
2023/12/22 00:04:20;;;;;;;6.35;0.88;;;7.10;99.90;;;;;;5034427;28;20422;-38
2023/12/22 00:06:48;;;;;;;10.35;1.38;;;7.10;99.90;;;;;;5034151;28;20030;-37
2023/12/22 00:09:14;;;;;;;8.75;1.80;;;7.20;99.90;;;;;;5034552;28;20029;-38
2023/12/22 00:11:39;;;;;;;9.98;0.75;;;7.20;99.90;;;;;;5034210;28;20026;-38
2023/12/22 00:14:05;;;;;;;8.40;1.17;;;7.20;99.90;;;;;;5033694;28;20037;-36
2023/12/22 00:16:30;;;;;;;6.28;1.25;;;7.20;99.90;;;;;;5034402;28;20458;-35
2023/12/22 00:18:57;;;;;;;12.20;1.63;;;7.30;99.90;;;;;;5033099;28;20104;-38
2023/12/22 00:21:23;;;;;;;7.65;1.17;;;7.20;99.90;;;;;;5065803;28;20135;-36
2023/12/22 00:23:48;;;;;;;10.18;1.15;;;7.20;99.90;;;;;;5033520;28;20017;-36
2023/12/22 00:26:15;;;;;;;8.27;0.90;;;7.10;99.90;;;;;;5034012;28;20025;-36
2023/12/22 00:28:41;;;;;;;15.65;1.63;;;7.10;99.90;;;;;;5034406;28;20492;-42
2023/12/22 00:31:07;;;;;;;4.55;0.43;;;7.10;99.90;;;;;;5034064;28;20359;-39
2023/12/22 00:33:33;;;;;;;3.03;0.65;;;7.00;99.90;;;;;;5034436;28;20017;-45
2023/12/22 00:35:59;;;;;;;0.32;0.25;;;7.00;99.90;;;;;;5039346;28;20482;-36
2023/12/22 00:38:24;;;;;;;7.00;0.95;;;6.90;99.90;;;;;;5033628;28;20486;-36
2023/12/22 00:40:50;;;;;;;4.93;0.90;;;6.80;99.90;;;;;;5033262;28;20485;-36
2023/12/22 00:43:15;;;;;;;9.55;0.88;;;6.40;99.90;;;;;;5033712;28;20085;-35
2023/12/22 00:45:41;;;;;;;6.90;0.70;;;6.10;99.90;;;;;;5032698;28;20022;-37
2023/12/22 00:48:07;;;;;;;9.82;1.80;;;6.00;99.90;;;;;;5033601;28;20393;-37
2023/12/22 00:50:32;;;;;;;4.82;0.65;;;5.90;99.90;;;;;;5034089;28;20025;-36
2023/12/22 00:52:58;;;;;;;7.03;1.38;;;5.90;99.90;;;;;;5033303;28;20097;-36
2023/12/22 00:55:24;;;;;;;8.85;1.08;;;5.90;99.90;;;;;;5029121;28;20018;-34
2023/12/22 00:57:50;;;;;;;8.45;1.13;;;5.90;99.90;;;;;;5019922;28;20029;-33
2023/12/22 01:00:16;;;;;;;2.92;0.75;;;5.90;99.90;;;;;;5033854;28;20017;-34
2023/12/22 01:02:42;;;;;;;8.80;1.08;;;6.00;99.90;;;;;;5033078;28;20470;-33
2023/12/22 01:05:08;;;;;;;5.60;0.85;;;5.90;99.90;;;;;;5033215;28;20040;-33
2023/12/22 01:07:33;;;;;;;8.07;0.68;;;5.90;99.90;;;;;;5033472;28;20025;-34
2023/12/22 01:10:01;;;;;;;7.72;1.20;;;5.90;99.90;;;;;;5032887;28;20044;-38
2023/12/22 01:12:28;;;;;;;11.15;1.63;;;5.90;99.90;;;;;;5032686;28;20517;-34
2023/12/22 01:14:55;;;;;;;10.00;0.77;;;6.00;99.90;;;;;;5033376;28;20030;-35
2023/12/22 01:17:20;;;;;;;6.93;0.77;;;6.00;99.90;;;;;;5033356;28;20428;-34
2023/12/22 01:19:46;;;;;;;8.18;1.45;;;6.00;99.90;;;;;;5033258;28;20079;-35
2023/12/22 01:22:12;;;;;;;13.35;1.05;;;6.00;99.90;;;;;;5032678;28;20017;-33
2023/12/22 01:24:40;;;;;;;8.27;0.93;;;6.00;99.90;;;;;;5031944;28;20573;-33
2023/12/22 01:27:06;;;;;;;13.95;1.52;;;6.10;99.90;;;;;;5030982;28;20025;-35
2023/12/22 01:29:32;;;;;;;12.13;2.38;;;6.10;99.90;;;;;;5013433;28;20026;-42
2023/12/22 01:31:58;;;;;;;7.40;1.60;;;6.10;99.90;;;;;;5032757;28;20504;-40
2023/12/22 01:34:23;;;;;;;3.50;1.27;;;6.20;99.90;;;;;;5032933;28;20029;-36
2023/12/22 01:36:49;;;;;;;4.35;0.77;;;6.20;99.90;;;;;;5031785;28;20014;-36
2023/12/22 01:39:15;;;;;;;12.75;1.38;;;6.20;99.90;;;;;;5024045;28;20017;-36
2023/12/22 01:41:41;;;;;;;12.50;1.40;;;6.30;99.90;;;;;;5032948;28;20500;-36
2023/12/22 01:44:07;;;;;;;21.63;2.35;;;6.30;99.90;;;;;;5031939;28;20105;-35
2023/12/22 01:46:33;;;;;;;8.07;1.02;;;6.30;99.90;;;;;;5032411;28;20029;-35
2023/12/22 01:49:02;;;;;;;13.20;1.63;;;6.40;99.90;;;;;;5032651;28;20025;-36
2023/12/22 01:51:31;;;;;;;17.42;1.25;;;6.40;99.90;;;;;;5032545;28;20367;-35
2023/12/22 01:53:56;;;;;;;;;;;6.40;99.90;;;;;;5032906;28;20038;-35
2023/12/22 01:56:22;;;;;;;15.23;1.95;;;6.40;99.90;;;;;;5032790;28;19909;-35
2023/12/22 01:58:50;;;;;;;18.35;2.17;;;6.50;99.90;;;;;;5032287;28;20359;-36
2023/12/22 02:01:16;;;;;;;10.57;1.80;;;6.40;99.90;;;;;;5032788;28;20071;-36
2023/12/22 02:03:42;;;;;;;21.20;2.22;;;6.40;99.90;;;;;;5032294;28;20529;-39
2023/12/22 02:06:07;;;;;;;8.98;1.65;;;6.40;99.90;;;;;;5031165;28;20026;-35
2023/12/22 02:08:34;;;;;;;17.33;3.20;;;6.40;99.90;;;;;;5032586;28;20383;-36
2023/12/22 02:11:00;;;;;;;16.58;1.48;;;6.40;99.90;;;;;;5032563;28;20029;-36
2023/12/22 02:13:26;;;;;;;19.50;2.35;;;6.40;99.90;;;;;;5031201;28;20125;-36
2023/12/22 02:16:00;;;;;;;17.95;2.97;;;6.40;99.90;;;;;;5032233;28;20530;-66
2023/12/22 02:18:30;;;;;;;15.07;1.75;;;6.40;99.90;;;;;;5032326;28;20036;-41
2023/12/22 02:20:56;;;;;;;17.38;2.63;;;6.50;99.90;;;;;;5032224;28;20528;-35
2023/12/22 02:23:21;;;;;;;15.75;1.90;;;6.60;99.90;;;;;;5032390;28;20022;-35
2023/12/22 02:25:52;;;;;;;17.88;3.83;;;6.70;99.90;;;;;;5027437;28;20220;-35
2023/12/22 02:28:20;;;;;;;16.80;2.92;;;6.70;99.90;;;;;;5012801;28;20445;-35
2023/12/22 02:31:21;;;;;;;14.05;2.67;;;6.80;99.90;;;;;;5013345;28;20524;-35
2023/12/22 02:33:49;;;;;;;14.65;3.10;;;6.90;99.90;;;;;;5021818;28;20043;-36
2023/12/22 02:36:16;;;;;;;23.02;1.70;;;7.00;99.90;;;;;;5032367;28;20367;-36
2023/12/22 02:38:43;;;;;;;13.90;2.47;;;7.10;99.90;;;;;;5030829;28;20080;-36
2023/12/22 02:41:10;;;;;;;12.17;2.30;;;7.00;99.90;;;;;;5029561;28;20051;-36
2023/12/22 02:43:36;;;;;;;11.88;1.23;;;7.10;99.90;;;;;;5032315;28;20272;-36
2023/12/22 02:46:01;;;;;;;26.85;2.03;;;7.20;99.90;;;;;;5032250;28;20098;-37
2023/12/22 02:48:27;;;;;;;13.73;2.70;;;7.20;99.90;;;;;;5040207;28;20029;-36
2023/12/22 02:50:53;;;;;;;12.75;1.85;;;7.30;99.90;;;;;;5032180;28;20030;-44
2023/12/22 02:53:18;;;;;;;12.00;1.90;;;7.30;99.90;;;;;;5032238;28;20405;-36
2023/12/22 02:55:44;;;;;;;5.75;1.25;;;7.30;99.90;;;;;;5033054;28;20026;-35
2023/12/22 02:58:10;;;;;;;10.63;2.00;;;7.30;99.90;;;;;;5034313;28;20029;-35
2023/12/22 03:00:36;;;;;;;8.27;1.35;;;7.30;99.90;;;;;;5036073;28;20381;-35
2023/12/22 03:03:01;;;;;;;12.93;1.75;;;7.30;99.90;;;;;;5035766;28;20022;-35
2023/12/22 03:05:27;;;;;;;22.20;2.13;;;7.30;99.90;;;;;;5035719;28;20111;-38
2023/12/22 03:07:52;;;;;;;13.43;1.75;;;7.30;99.90;;;;;;5034406;28;20025;-35
2023/12/22 03:10:18;;;;;;;22.02;1.83;;;7.30;99.90;;;;;;5036721;28;20025;-35
2023/12/22 03:12:44;;;;;;;14.82;2.00;;;7.20;99.90;;;;;;5035121;28;20359;-36
2023/12/22 03:15:10;;;;;;;14.93;2.70;;;7.30;99.90;;;;;;5035201;28;20044;-36
2023/12/22 03:17:35;;;;;;;13.43;1.85;;;7.40;99.90;;;;;;5035533;28;20030;-37
2023/12/22 03:20:01;;;;;;;17.70;2.80;;;7.50;99.90;;;;;;5035317;28;20079;-38
2023/12/22 03:22:27;;;;;;;12.35;1.77;;;7.60;99.90;;;;;;5035510;28;20509;-38
2023/12/22 03:24:52;;;;;;;14.23;1.98;;;7.70;99.90;;;;;;5033407;28;20040;-39
2023/12/22 03:27:20;;;;;;;14.13;1.92;;;7.70;99.90;;;;;;5034874;28;20112;-37
2023/12/22 03:29:45;;;;;;;14.73;2.60;;;7.70;99.90;;;;;;5034351;28;20057;-36
2023/12/22 03:32:11;;;;;;;7.22;2.28;;;7.70;99.90;;;;;;5033087;28;20061;-37
2023/12/22 03:34:37;;;;;;;10.10;2.88;;;7.80;99.90;;;;;;5034029;28;20034;-40
2023/12/22 03:37:02;;;;;;;19.73;2.50;;;7.90;99.90;;;;;;5034846;28;20470;-39
2023/12/22 03:39:28;;;;;;;19.20;2.22;;;7.90;99.90;;;;;;5034700;28;20444;-37
2023/12/22 03:41:54;;;;;;;13.55;1.92;;;7.90;99.90;;;;;;5035122;28;20026;-37
2023/12/22 03:44:19;;;;;;;14.07;3.47;;;8.00;99.90;;;;;;5035101;28;20026;-51
2023/12/22 03:46:45;;;;;;;18.88;1.60;;;8.00;99.90;;;;;;5033643;28;20488;-43
2023/12/22 03:49:11;;;;;;;13.50;2.85;;;8.10;99.90;;;;;;5033517;28;20033;-39
2023/12/22 03:51:37;;;;;;;24.23;2.15;;;8.00;99.90;;;;;;5033800;28;20037;-38
2023/12/22 03:54:03;;;;;;;18.80;1.58;;;8.00;99.90;;;;;;5034807;28;20460;-38
2023/12/22 03:56:28;;;;;;;9.05;1.63;;;8.10;99.90;;;;;;5034797;28;20100;-38
2023/12/22 03:58:55;;;;;;;22.35;2.08;;;8.20;99.90;;;;;;5033474;28;20029;-39
2023/12/22 04:01:21;;;;;;;22.70;2.17;;;8.10;99.90;;;;;;5066770;28;20028;-38
2023/12/22 04:03:47;;;;;;;8.68;1.17;;;8.20;99.90;;;;;;5021969;28;20026;-39
2023/12/22 04:06:12;;;;;;;10.82;1.73;;;8.10;99.90;;;;;;5027682;28;20029;-38
2023/12/22 04:08:38;;;;;;;17.17;2.45;;;8.10;99.90;;;;;;5033569;28;20025;-39
2023/12/22 04:11:03;;;;;;;13.50;1.83;;;8.00;99.90;;;;;;5034507;28;20398;-38
2023/12/22 04:13:29;;;;;;;21.50;2.58;;;8.00;99.90;;;;;;5033860;28;20040;-37
2023/12/22 04:15:55;;;;;;;13.18;1.92;;;8.10;99.90;;;;;;5033227;28;20030;-38
2023/12/22 04:18:20;;;;;;;10.55;1.90;;;8.10;99.90;;;;;;5034392;28;20500;-37
2023/12/22 04:20:46;;;;;;;10.68;1.73;;;8.20;99.90;;;;;;5033675;28;20394;-38
2023/12/22 04:23:12;;;;;;;18.70;2.05;;;8.10;99.90;;;;;;5034159;28;20030;-38
2023/12/22 04:25:38;;;;;;;9.00;1.65;;;8.10;99.90;;;;;;5034335;28;20041;-39
2023/12/22 04:28:04;;;;;;;22.52;3.17;;;8.10;99.90;;;;;;5033558;28;20037;-39
2023/12/22 04:30:29;;;;;;;13.68;2.08;;;8.10;99.90;;;;;;5033312;28;20107;-37
2023/12/22 04:32:56;;;;;;;16.15;2.03;;;8.20;99.90;;;;;;5032642;28;20018;-51
2023/12/22 04:35:21;;;;;;;10.70;1.65;;;8.20;99.90;;;;;;5033076;28;20025;-52
2023/12/22 04:37:47;;;;;;;9.98;2.15;;;8.20;99.90;;;;;;5033231;28;20115;-62
2023/12/22 04:40:12;;;;;;;12.65;2.88;;;8.30;99.90;;;;;;5033705;28;20021;-50
2023/12/22 04:42:38;;;;;;;14.00;2.00;;;8.30;99.90;;;;;;5033931;28;20100;-53
2023/12/22 04:45:04;;;;;;;18.58;2.85;;;8.30;99.90;;;;;;5033893;28;20075;-51
2023/12/22 04:47:30;;;;;;;14.35;1.98;;;8.30;99.90;;;;;;5032869;28;20516;-52
2023/12/22 04:49:55;;;;;;;11.75;2.22;;;8.30;99.90;;;;;;5033655;28;20033;-51
2023/12/22 04:52:21;;;;;;;15.13;2.55;;;8.40;99.90;;;;;;5033543;28;20025;-48
2023/12/22 04:54:47;;;;;;;13.07;1.42;;;8.40;99.90;;;;;;5033677;28;20105;-50
2023/12/22 04:57:13;;;;;;;15.40;1.50;;;8.40;99.90;;;;;;5033430;28;20030;-49
2023/12/22 04:59:38;;;;;;;17.60;2.85;;;8.40;99.90;;;;;;5033594;28;20040;-51
2023/12/22 05:02:04;;;;;;;23.15;2.35;;;8.50;99.90;;;;;;5033255;28;20422;-50
2023/12/22 05:04:29;;;;;;;16.15;2.15;;;8.50;99.90;;;;;;5033272;28;20032;-52
2023/12/22 05:06:55;;;;;;;18.20;1.67;;;8.50;99.90;;;;;;5031799;28;20028;-52
2023/12/22 05:09:21;;;;;;;17.50;1.92;;;8.50;99.90;;;;;;5033002;28;20473;-52
2023/12/22 05:11:46;;;;;;;13.02;1.55;;;8.50;99.90;;;;;;5033357;28;20029;-54
2023/12/22 05:14:12;;;;;;;8.80;1.45;;;8.50;99.90;;;;;;5032628;28;20081;-51
2023/12/22 05:16:38;;;;;;;13.27;1.38;;;8.50;99.90;;;;;;5033571;28;20025;-51
2023/12/22 05:19:03;;;;;;;12.40;2.75;;;8.50;99.90;;;;;;5031649;28;20051;-52
2023/12/22 05:21:30;;;;;;;15.07;2.17;;;8.60;99.90;;;;;;5032320;28;20010;-49
2023/12/22 05:23:55;;;;;;;9.73;1.88;;;8.60;99.90;;;;;;5032141;28;20025;-52
2023/12/22 05:26:21;;;;;;;5.93;0.95;;;8.70;99.90;;;;;;5031004;28;20104;-53
2023/12/22 05:28:49;;;;;;;12.40;2.05;;;8.70;99.90;;;;;;5032545;28;20025;-51
2023/12/22 05:31:15;;;;;;;7.20;2.28;;;8.70;99.90;;;;;;5032553;28;20037;-59
2023/12/22 05:33:41;;;;;;;14.70;1.70;;;8.70;99.90;;;;;;5033044;28;20022;-47
2023/12/22 05:36:07;;;;;;;15.43;2.17;;;8.70;99.90;;;;;;5032204;28;20441;-54
2023/12/22 05:38:36;;;;;;;11.10;1.40;;;8.70;99.90;;;;;;5033042;28;20032;-54
2023/12/22 05:41:02;;;;;;;7.95;1.58;;;8.70;99.90;;;;;;5032951;28;20529;-52
2023/12/22 05:43:28;;;;;;;10.30;1.88;;;8.70;99.90;;;;;;5032816;28;20148;-52
2023/12/22 05:45:53;;;;;;;15.45;2.97;;;8.70;99.90;;;;;;5032805;28;20033;-52
2023/12/22 05:48:21;;;;;;;16.83;2.28;;;8.80;99.90;;;;;;5032732;28;20055;-52
2023/12/22 05:50:47;;;;;;;;;;;8.80;99.90;;;;;;5033131;28;20086;-54
2023/12/22 05:53:13;;;;;;;12.82;1.88;;;8.80;99.90;;;;;;5032735;28;20428;-38
2023/12/22 05:55:39;;;;;;;20.75;2.13;;;8.80;99.90;;;;;;5032693;28;20034;-38
2023/12/22 05:58:05;;;;;;;26.58;2.55;;;8.80;99.90;;;;;;5031800;28;20449;-39
2023/12/22 06:00:31;;;;;;;14.13;1.48;;;8.80;99.90;;;;;;5032552;28;20025;-38
2023/12/22 06:02:57;;;;;;;17.10;2.08;;;8.80;99.90;;;;;;5032695;28;20052;-40
2023/12/22 06:05:23;;;;;;;13.18;1.60;;;8.90;99.90;;;;;;5031093;28;20033;-39
2023/12/22 06:07:49;;;;;;;6.82;1.65;;;8.90;99.90;;;;;;5031902;28;20060;-51
2023/12/22 06:10:14;;;;;;;12.70;1.67;;;8.90;99.90;;;;;;5032146;28;20018;-53
2023/12/22 06:12:40;;;;;;;19.25;2.40;;;8.90;99.90;;;;;;5032044;28;20415;-53
2023/12/22 06:15:06;;;;;;;27.58;2.97;;;8.90;99.90;;;;;;5032492;28;20455;-54
2023/12/22 06:17:32;;;;;;;25.90;2.92;;;8.80;99.90;;;;;;5032424;28;20061;-52
2023/12/22 06:19:57;;;;;;;13.63;2.83;;;8.80;99.90;;;;;;5032627;28;20037;-52
2023/12/22 06:22:23;;;;;;;12.10;1.80;;;8.80;99.90;;;;;;5032359;28;20014;-54
2023/12/22 06:24:49;;;;;;;14.93;1.77;;;8.90;99.90;;;;;;5032751;28;20025;-52
2023/12/22 06:27:15;;;;;;;14.25;1.75;;;8.90;99.90;;;;;;5031472;28;20104;-50
2023/12/22 06:29:41;;;;;;;24.90;2.80;;;8.90;99.90;;;;;;5031576;28;20482;-49
2023/12/22 06:32:07;;;;;;;18.48;1.77;;;8.90;99.90;;;;;;5036996;28;20039;-51
2023/12/22 06:34:33;;;;;;;9.35;2.58;;;9.00;99.90;;;;;;5040803;28;20505;-54
2023/12/22 06:36:58;;;;;;;14.00;2.70;;;9.00;99.90;;;;;;5033998;28;20022;-53
2023/12/22 06:39:24;;;;;;;12.18;2.22;;;9.00;99.90;;;;;;5036136;28;20025;-53
2023/12/22 06:41:51;;;;;;;20.63;3.17;;;9.10;99.90;;;;;;5034939;28;20448;-52
2023/12/22 06:44:16;;;;;;;18.33;2.38;;;9.10;99.90;;;;;;5034479;28;20478;-52
2023/12/22 06:46:42;;;;;;;12.35;2.05;;;9.10;99.90;;;;;;5035844;28;20036;-54
2023/12/22 06:49:07;;;;;;;31.33;4.03;;;9.20;99.90;;;;;;5035990;28;20034;-51
2023/12/22 06:51:36;;;;;;;13.00;2.65;;;9.10;99.90;;;;;;5035675;28;20460;-52
2023/12/22 06:54:04;;;;;;;21.90;2.75;;;9.10;99.90;;;;;;5034636;28;20037;-53
2023/12/22 06:56:32;;;;;;;23.60;2.55;;;9.20;99.90;;;;;;5035809;28;20029;-51
2023/12/22 06:58:58;;;;;;;23.30;4.55;;;9.20;99.90;;;;;;5035879;28;20037;-51
2023/12/22 07:01:32;;;;;;;19.63;2.42;;;9.20;99.90;;;;;;5024948;28;20022;-52
2023/12/22 07:04:01;;;;;;;25.67;3.92;;;9.20;99.90;;;;;;5015890;28;20033;-52
2023/12/22 07:06:29;;;;;;;20.88;2.60;;;9.20;99.90;;;;;;5021737;28;20083;-54
2023/12/22 07:09:14;;;;;;;16.80;2.90;;;9.20;99.90;;;;;;5035287;28;20022;-53
2023/12/22 07:11:39;;;;;;;20.55;3.30;;;9.20;99.90;;;;;;5034230;28;20490;-52
2023/12/22 07:14:05;;;;;;;19.13;4.38;;;9.20;99.90;;;;;;5035247;28;20041;-52
2023/12/22 07:16:31;;;;;;;25.55;4.20;;;9.30;99.90;;;;;;5035754;28;20026;-53
2023/12/22 07:18:56;;;;;;;17.35;3.35;;;9.30;99.90;;;;;;5034375;28;20087;-54
2023/12/22 07:21:22;;;;;;;24.73;3.85;;;9.30;99.90;;;;;;5046703;28;20079;-51
2023/12/22 07:23:47;;;;;;;34.60;4.72;;;9.30;99.90;;;;;;5034611;28;20533;-51
2023/12/22 07:26:13;;;;;;;18.25;2.83;;;9.30;99.90;;;;;;5034431;28;20021;-53
2023/12/22 07:28:39;;;;;;;18.08;4.20;;;9.30;99.90;;;;;;5036232;28;20110;-54
2023/12/22 07:31:05;;;;;;;18.50;2.72;;;9.30;99.90;;;;;;5034989;28;20033;-52
2023/12/22 07:33:31;;;;;;;20.80;2.65;;;9.10;99.90;;;;;;5035227;28;20021;-50
2023/12/22 07:35:56;;;;;;;20.88;2.97;;;9.00;99.90;;;;;;5035139;28;20385;-69
2023/12/22 07:38:22;;;;;;;17.73;2.60;;;9.00;99.90;;;;;;5034396;28;20386;-54
2023/12/22 07:40:48;;;;;;;14.32;2.42;;;9.00;99.90;;;;;;5033960;28;20474;-51
2023/12/22 07:43:14;;;;;;;16.35;2.83;;;9.00;99.90;;;;;;5033650;28;20034;-54
2023/12/22 07:45:40;;;;;;;30.25;4.90;;;9.00;99.90;;;;;;5034926;28;20036;-56
2023/12/22 07:48:06;;;;;;;24.85;2.63;;;9.00;99.90;;;;;;5034698;28;20386;-52
2023/12/22 07:50:32;;;;;;;15.55;2.78;;;9.10;99.90;;;;;;5035097;28;20533;-54
2023/12/22 07:52:58;;;;;;;28.98;3.70;;;9.10;99.90;;;;;;5034916;28;20100;-53
2023/12/22 07:55:24;;;;;;;29.08;4.32;;;9.10;99.90;;;;;;5033851;28;20478;-53
2023/12/22 07:57:50;;;;;;;22.00;3.58;;;9.10;99.90;;;;;;5047698;28;20017;-54
2023/12/22 08:00:17;;;;;;;21.98;2.70;;;9.10;99.90;;;;;;5037706;28;20025;-54
2023/12/22 08:02:42;;;;;;;31.95;4.40;;;9.10;99.90;;;;;;5032685;28;20035;-50
2023/12/22 08:05:08;;;;;;;24.02;2.97;;;9.10;99.90;;;;;;5033707;28;20382;-54
2023/12/22 08:07:35;;;;;;;21.63;2.65;;;9.20;99.90;;;;;;5033763;28;20068;-53
2023/12/22 08:10:01;;;;;;;19.23;2.65;;;9.10;99.90;;;;;;5035034;28;20087;-55
2023/12/22 08:12:28;;;;;;;23.08;2.47;;;9.00;99.90;;;;;;5031493;28;20038;-52
2023/12/22 08:14:54;;;;;;;32.13;4.60;;;8.90;99.90;;;;;;5033608;28;20537;-47
2023/12/22 08:17:19;;;;;;;15.00;2.38;;;8.70;99.90;;;;;;5034354;28;20052;-52
2023/12/22 08:19:45;;;;;;;14.65;1.80;;;8.60;99.90;;;;;;5034311;28;20049;-50
2023/12/22 08:22:13;;;;;;;14.30;2.08;;;8.50;99.90;;;;;;5034185;28;20048;-54
2023/12/22 08:24:39;;;;;;;21.27;2.10;;;8.40;99.90;;;;;;5034585;28;20492;-53
2023/12/22 08:27:06;;;;;;;17.67;4.35;;;8.40;99.90;;;;;;5033879;28;20497;-53
2023/12/22 08:29:32;;;;;;;14.60;1.67;;;8.40;99.90;;;;;;5034458;28;20488;-47
2023/12/22 08:31:58;;;;;;;9.20;1.35;;;8.40;99.90;;;;;;5033003;28;20359;-50
2023/12/22 08:34:24;;;;;;;6.53;1.95;;;8.40;99.90;;;;;;5031374;28;20478;-48
2023/12/22 08:36:50;;;;;;;23.67;2.75;;;8.30;99.90;;;;;;5032781;28;20029;-49
2023/12/22 08:39:15;;;;;;;17.70;1.77;;;8.50;99.90;;;;;;5034066;28;20018;-51
2023/12/22 08:41:42;;;;;;;18.52;2.03;;;8.50;99.90;;;;;;5033809;28;20033;-46
2023/12/22 08:44:08;;;;;;;13.15;2.17;;;8.60;99.90;;;;;;5033902;28;20071;-50
2023/12/22 08:46:34;;;;;;;12.02;2.30;;;8.60;99.90;;;;;;5034004;28;20458;-50
2023/12/22 08:49:00;;;;;;;16.67;2.33;;;8.70;99.90;;;;;;5033706;28;20021;-45
2023/12/22 08:51:26;;;;;;;23.88;2.40;;;8.70;99.90;;;;;;5032893;28;20056;-53
2023/12/22 08:53:54;;;;;;;17.90;2.40;;;8.80;99.90;;;;;;5032882;28;20508;-49
2023/12/22 08:56:21;;;;;;;;;;;8.80;99.90;;;;;;5033890;28;20025;-48
2023/12/22 08:58:47;;;;;;;11.88;1.75;;;8.90;99.90;;;;;;5032923;28;20324;-52
2023/12/22 09:01:16;;;;;;;16.40;2.50;;;8.90;99.90;;;;;;5033195;28;20025;-53
2023/12/22 09:03:45;;;;;;;17.92;2.65;;;8.90;99.90;;;;;;5033218;28;20057;-47
2023/12/22 09:06:15;;;;;;;16.85;2.65;;;8.90;99.90;;;;;;5032592;28;20490;-49
2023/12/22 09:08:41;;;;;;;18.95;2.38;;;8.90;99.90;;;;;;5029817;28;20028;-45
2023/12/22 09:11:07;;;;;;;10.57;1.40;;;9.00;99.90;;;;;;5032588;28;20033;-60
2023/12/22 09:13:35;;;;;;;11.48;1.52;;;9.00;99.90;;;;;;5032879;28;20049;-48
2023/12/22 09:16:02;;;;;;;6.57;1.10;;;9.00;99.90;;;;;;5033562;28;20128;-47
2023/12/22 09:18:28;;;;;;;11.82;2.15;;;9.00;99.90;;;;;;5033189;28;20082;-47
2023/12/22 09:20:54;;;;;;;9.95;1.42;;;9.00;99.90;;;;;;5033107;28;20041;-50
2023/12/22 09:23:21;;;;;;;13.90;1.52;;;9.10;99.90;;;;;;5033243;28;20398;-46
2023/12/22 09:25:46;;;;;;;8.45;2.13;;;9.10;99.90;;;;;;5033107;28;20107;-50
2023/12/22 09:28:12;;;;;;;15.20;2.22;;;9.20;99.90;;;;;;5033078;28;20474;-46
2023/12/22 09:30:38;;;;;;;7.60;1.17;;;9.20;99.90;;;;;;5032941;28;20053;-45
2023/12/22 09:33:04;;;;;;;7.75;2.13;;;9.20;99.90;;;;;;5033311;28;20484;-47
2023/12/22 09:35:29;;;;;;;13.73;2.58;;;9.20;99.90;;;;;;5033282;28;20411;-49
2023/12/22 09:37:55;;;;;;;5.22;1.50;;;9.30;99.90;;;;;;5032990;28;20097;-47
2023/12/22 09:40:23;;;;;;;15.60;1.38;;;9.30;99.90;;;;;;5031639;28;20030;-51
2023/12/22 09:42:53;;;;;;;9.27;1.23;;;9.30;99.90;;;;;;5032939;28;20079;-46
2023/12/22 09:45:20;;;;;;;8.70;2.25;;;9.40;99.90;;;;;;5032879;28;20026;-47
2023/12/22 09:47:47;;;;;;;13.80;1.10;;;9.40;99.90;;;;;;5032681;28;20052;-48
2023/12/22 09:50:31;;;;;;;16.67;1.10;;;9.40;99.90;;;;;;5032892;28;20087;-48
2023/12/22 09:52:57;;;;;;;7.13;1.02;;;9.50;99.90;;;;;;5033141;28;20032;-50
2023/12/22 09:55:24;;;;;;;8.60;1.05;;;9.50;99.90;;;;;;5032711;28;20386;-45
2023/12/22 09:57:52;;;;;;;12.27;1.80;;;9.60;99.90;;;;;;5033006;28;20550;-53
2023/12/22 10:00:18;;;;;;;18.75;2.58;;;9.60;99.90;;;;;;5032754;28;20033;-47
2023/12/22 10:02:45;;;;;;;6.22;1.02;;;9.70;99.90;;;;;;5027337;28;20426;-54
2023/12/22 10:05:14;;;;;;;3.45;0.80;;;9.70;99.90;;;;;;5031474;28;20037;-44
2023/12/22 10:07:43;;;;;;;5.30;1.30;;;9.80;99.90;;;;;;5036739;28;20026;-49
2023/12/22 10:10:10;;;;;;;4.97;0.70;;;9.80;99.90;;;;;;5036860;28;20029;-50
2023/12/22 10:12:37;;;;;;;7.53;0.73;;;9.90;99.90;;;;;;5036706;28;20045;-46
2023/12/22 10:15:04;;;;;;;5.63;0.80;;;10.00;99.90;;;;;;5036732;28;20508;-50
2023/12/22 10:17:31;;;;;;;5.75;1.70;;;10.00;99.90;;;;;;5036966;28;20529;-50
2023/12/22 10:19:56;;;;;;;11.48;1.67;;;9.90;99.90;;;;;;5036544;28;20075;-51
2023/12/22 10:22:23;;;;;;;8.57;1.08;;;10.00;99.90;;;;;;5036601;28;20474;-50
2023/12/22 10:24:52;;;;;;;7.47;1.17;;;10.00;99.90;;;;;;5036903;28;20485;-52
2023/12/22 10:27:22;;;;;;;4.45;0.80;;;9.90;99.90;;;;;;5036788;28;20037;-47
2023/12/22 10:29:49;;;;;;;2.38;0.77;;;9.90;99.90;;;;;;5036768;28;20391;-53
2023/12/22 10:32:16;;;;;;;3.22;0.70;;;9.90;99.90;;;;;;5034520;28;20021;-51
2023/12/22 10:34:42;;;;;;;6.90;1.05;;;9.90;99.90;;;;;;5033360;28;20375;-52
2023/12/22 10:37:09;;;;;;;5.72;1.40;;;9.90;99.90;;;;;;5035235;28;20478;-51
2023/12/22 10:39:36;;;;;;;6.63;1.48;;;9.90;99.90;;;;;;5036288;28;20512;-51
2023/12/22 10:42:02;;;;;;;5.97;1.08;;;9.90;99.90;;;;;;5036204;28;20120;-52
2023/12/22 10:44:29;;;;;;;8.70;1.52;;;9.90;99.90;;;;;;5036153;28;20079;-52
2023/12/22 10:46:55;;;;;;;5.90;1.42;;;9.90;99.90;;;;;;5036364;28;20029;-51
2023/12/22 10:49:22;;;;;;;7.78;1.15;;;10.00;99.90;;;;;;5036368;28;20482;-58
2023/12/22 10:51:49;;;;;;;6.25;1.27;;;10.00;99.90;;;;;;5036077;28;20112;-51
2023/12/22 10:54:15;;;;;;;8.55;1.45;;;10.10;99.90;;;;;;5035701;28;20505;-46
2023/12/22 10:56:41;;;;;;;3.80;1.10;;;10.10;99.90;;;;;;5036001;28;20474;-48
2023/12/22 10:59:08;;;;;;;16.48;1.67;;;10.10;99.90;;;;;;5035937;28;20084;-53
2023/12/22 11:01:39;;;;;;;14.63;1.50;;;10.20;99.90;;;;;;5035914;28;20104;-51
2023/12/22 11:04:17;;;;;;;5.00;0.63;;;10.20;99.90;;;;;;5034451;28;20026;-54
2023/12/22 11:06:46;;;;;;;7.30;0.77;;;10.20;99.90;;;;;;5035695;28;20545;-49
2023/12/22 11:09:16;;;;;;;3.63;0.85;;;10.20;99.90;;;;;;5035732;28;20025;-49
2023/12/22 11:11:42;;;;;;;4.43;0.85;;;10.10;99.90;;;;;;5035450;28;20076;-53
2023/12/22 11:14:08;;;;;;;10.38;1.33;;;10.10;99.90;;;;;;5035419;28;20053;-51
2023/12/22 11:16:35;;;;;;;2.90;0.50;;;10.10;99.90;;;;;;5035437;28;20375;-53
2023/12/22 11:19:02;;;;;;;5.18;1.08;;;10.20;99.90;;;;;;5035584;28;20033;-53
2023/12/22 11:21:29;;;;;;;2.83;1.17;;;10.20;99.90;;;;;;5018134;28;20116;-53
2023/12/22 11:23:55;;;;;;;3.53;1.02;;;10.30;99.90;;;;;;5031528;28;20026;-52
2023/12/22 11:26:22;;;;;;;8.55;1.20;;;10.30;99.90;;;;;;5035402;28;20034;-53
2023/12/22 11:28:50;;;;;;;9.68;1.38;;;10.30;99.90;;;;;;5033056;28;20563;-52
2023/12/22 11:31:17;;;;;;;6.80;1.05;;;10.30;99.90;;;;;;5035478;28;20033;-54
2023/12/22 11:33:50;;;;;;;5.03;0.95;;;10.30;99.90;;;;;;5034934;28;20500;-51
2023/12/22 11:36:18;;;;;;;6.68;0.82;;;10.40;99.90;;;;;;5017081;28;20034;-53
2023/12/22 11:38:45;;;;;;;4.43;0.95;;;10.40;99.90;;;;;;5035188;28;20026;-52
2023/12/22 11:41:19;;;;;;;5.55;1.23;;;10.40;99.90;;;;;;5035470;28;20429;-52
2023/12/22 11:43:46;;;;;;;3.45;1.17;;;10.40;99.90;;;;;;5035104;28;20048;-51
2023/12/22 11:46:12;;;;;;;5.82;1.55;;;10.30;99.90;;;;;;5034364;28;20387;-51
2023/12/22 11:48:39;;;;;;;5.03;0.70;;;10.30;99.90;;;;;;5034909;28;20105;-52
2023/12/22 11:51:15;;;;;;;6.72;1.75;;;10.40;99.90;;;;;;5035066;28;20037;-55
2023/12/22 11:53:41;;;;;;;3.55;0.95;;;10.40;99.90;;;;;;5033586;28;20108;-62
2023/12/22 11:56:08;;;;;;;4.53;0.80;;;10.50;99.90;;;;;;5034824;28;20052;-48
2023/12/22 11:58:35;;;;;;;2.50;0.50;;;10.40;99.90;;;;;;5033573;28;20033;-53
2023/12/22 12:01:09;;;;;;;4.25;0.77;;;10.40;99.90;;;;;;5034333;28;20079;-53
2023/12/22 12:03:56;;;;;;;5.95;1.08;;;10.50;99.90;;;;;;5034235;28;20052;-53
2023/12/22 12:06:25;;;;;;;7.47;0.88;;;10.60;99.90;;;;;;5033662;28;20025;-53
2023/12/22 12:08:53;;;;;;;13.32;2.25;;;10.60;99.90;;;;;;5033044;28;20061;-53
2023/12/22 12:11:39;;;;;;;;;;;10.70;99.90;;;;;;5035064;28;20036;-52
2023/12/22 12:14:11;;;;;;;4.35;1.02;;;10.70;99.90;;;;;;5021247;28;19935;-52
2023/12/22 12:16:38;;;;;;;10.85;1.35;;;10.60;99.90;;;;;;5031557;28;20030;-55
2023/12/22 12:19:08;;;;;;;6.95;1.45;;;10.60;99.90;;;;;;5034011;28;20159;-54
2023/12/22 12:21:34;;;;;;;11.75;0.98;;;10.60;99.90;;;;;;5033478;28;20115;-52
2023/12/22 12:23:59;;;;;;;6.72;1.30;;;10.60;99.90;;;;;;5046107;28;20477;-49
2023/12/22 12:26:26;;;;;;;13.00;1.88;;;10.60;99.90;;;;;;5052935;28;20492;-52
2023/12/22 12:28:52;;;;;;;3.22;0.60;;;10.60;99.90;;;;;;5045051;28;20469;-53
2023/12/22 12:31:18;;;;;;;17.38;1.40;;;10.60;99.90;;;;;;5033923;28;20031;-49
2023/12/22 12:33:45;;;;;;;8.25;0.80;;;10.60;99.90;;;;;;5034133;28;20437;-60
2023/12/22 12:36:11;;;;;;;9.30;1.33;;;10.70;99.90;;;;;;5033460;28;20547;-54
2023/12/22 12:38:41;;;;;;;7.00;1.17;;;10.70;99.90;;;;;;5032618;28;20030;-49
2023/12/22 12:41:10;;;;;;;13.65;2.08;;;10.70;99.90;;;;;;5032385;28;20540;-49
2023/12/22 12:43:40;;;;;;;3.22;0.73;;;10.70;99.90;;;;;;5034215;28;20059;-50
2023/12/22 12:46:06;;;;;;;15.77;2.05;;;10.60;99.90;;;;;;5034150;28;20429;-45
2023/12/22 12:48:32;;;;;;;9.82;1.30;;;10.60;99.90;;;;;;5033570;28;20079;-53